SBOSBO ODH / EGVO
Speedbird OnlineSpeedbird Online ODH / EGVO

RAF Odiham
09:13 17°C

Location Odiham, United Kingdom
Latitude: 51.2341003418
Longitude: -0.94282501936
Local Time 09:13 on 18 Jul 2024
UTC +1 hours (Europe/London)
METAR EGVO 180750Z 36004KT 9999 FEW045 BKN130 16/14 Q1021 NOSIG RMK BLU BLU
TAF TAF EGVO 180555Z 1807/1818 09004KT 4000 BR FEW001 BECMG 1807/1809 9999 NSW
Weather As Of 18 Jul 2024 09:13
Description Broken clouds
Wind 7 km/h from North (360°)
Cloud Cover 75%
Precipitation Rain: none, Snow: none
Sunrise 05:09
Sunset 21:10
Web Wikipedia
Codes IATA: ODH
ICAO: EGVO
Altitude 123 Meter / 405 Feet
Distance 80 KM / 50 Miles
from London.
Runways
RunwayLength (m)Surface
091838Asphalt
271838Asphalt
Radio
TypeDescriptionFrequency
APPAPP131.3
APP234.35
ATISATIS379.37
GNDGND24.102
INFOFIS122.1
MISCFARNBOROUGH LARS125.25
RDRTalkdown123.3
RDRTalkdown278.22
RDRTalkdown385.4
RDR386.77
TWRTWR122.1
TWR257.8
TWR258.72
Live ATC



Support Speedbird Online

© 2017-2024 Speedbird Online